• Join FlightAware (Why Join?)
  • Login
  • US Flag 
04:19AM EST


 

Airport Tracker/Info


-or-


 

Live Flight TrackerFlight Track Log ✈ UPS1305 ✈ 12-Sep-2013 ✈ KATL - KSDF

Flight Track Log - Related Links

Times and Time Zones

All times are in EDT time to prevent confusion due to time zone crossing. See the UPS1305 flight status page for this flight to view local times or setup timezone preferences in your user account.

Time Position Orientation Groundspeed Altitude Reporting Facility
EDT Latitude Longitude Course Direction KTS MPH feet Rate Location/Type
10:03PM 33.6536 -84.4881 348° North 472 543 3,500  Level Atlanta Center
10:09PM 34.2643 -84.6000 348° North  Level Estimated
10:09PM 34.1065 -84.5893 348° North 412 474 17,500  Level FlightAware ADS-B
10:09PM 34.1161 -84.5896 359° North 412 474 17,700 3,000 Climbing FlightAware ADS-B
10:09PM 34.1456 -84.5905 359° North 414 476 18,400 5,220 Climbing FlightAware ADS-B
10:09PM 34.1477 -84.5906 358° North 415 478 18,400 1,500 Level FlightAware ADS-B
10:09PM 34.1538 -84.5907 359° North 415 478 18,500 2,520 Climbing FlightAware ADS-B
10:09PM 34.1597 -84.5909 358° North 415 478 18,700 2,520 Climbing FlightAware ADS-B
10:09PM 34.1676 -84.5910 359° North 416 479 18,800 2,400 Climbing FlightAware ADS-B
10:09PM 34.1716 -84.5911 359° North 416 479 18,900 3,000 Climbing FlightAware ADS-B
10:09PM 34.1755 -84.5912 359° North 416 479 19,000 2,520 Climbing FlightAware ADS-B
10:09PM 34.1865 -84.5915 359° North 416 479 19,200 2,220 Climbing FlightAware ADS-B
10:09PM 34.1901 -84.5916 359° North 417 480 19,300 2,640 Climbing FlightAware ADS-B
10:10PM 34.2039 -84.5919 359° North 418 481 19,600 1,980 Climbing FlightAware ADS-B
10:10PM 34.2093 -84.5921 358° North 419 482 19,700 1,980 Climbing FlightAware ADS-B
10:10PM 34.2156 -84.5923 358° North 419 482 19,800 6,000 Climbing FlightAware ADS-B
10:10PM 34.2176 -84.5923 360° North 419 482 19,900 1,920 Climbing FlightAware ADS-B
10:11PM 34.3953 -84.6219 352° North 439 505 22,800 1,860 Climbing FlightAware ADS-B
10:11PM 34.4041 -84.6241 348° North 439 505 22,900 1,500 Climbing FlightAware ADS-B
10:11PM 34.4081 -84.6251 348° North 443 510 23,000 2,220 Climbing FlightAware ADS-B
10:11PM 34.4204 -84.6282 348° North 443 510 23,200 2,400 Climbing FlightAware ADS-B
10:11PM 34.4225 -84.6287 349° North 444 511 23,200  Level FlightAware ADS-B
10:11PM 34.4246 -84.6292 349° North 444 511 23,200 3,000 Level FlightAware ADS-B
10:11PM 34.4267 -84.6298 347° North 444 511 23,300 3,000 Climbing FlightAware ADS-B
10:11PM 34.4288 -84.6303 349° North 444 511 23,300 3,000 Level FlightAware ADS-B
10:11PM 34.4314 -84.6309 349° North 445 512 23,400 1,500 Climbing FlightAware ADS-B
10:12PM 34.4325 -84.6312 347° North 445 512 23,400 960 Level FlightAware ADS-B
10:12PM 34.4411 -84.6334 348° North 446 513 23,500 1,680 Climbing FlightAware ADS-B
10:12PM 34.4506 -84.6358 348° North 447 514 23,600 1,980 Climbing FlightAware ADS-B
10:12PM 34.4546 -84.6367 349° North 448 516 23,700 1,980 Climbing FlightAware ADS-B
10:12PM 34.4642 -84.6391 348° North 449 517 23,800 1,680 Climbing FlightAware ADS-B
10:12PM 34.4697 -84.6404 349° North 449 517 23,900 1,500 Climbing FlightAware ADS-B
10:12PM 34.4729 -84.6413 347° North 449 517 23,900 1,980 Level FlightAware ADS-B
10:12PM 34.4761 -84.6420 350° North 449 517 24,000 1,980 Climbing FlightAware ADS-B
10:12PM 34.4789 -84.6428 347° North 449 517 24,000 1,920 Level FlightAware ADS-B
10:13PM 34.6133 -84.6758 349° North 449 517 26,200 2,040 Climbing FlightAware ADS-B
10:13PM 34.6216 -84.6779 348° North 449 517 26,400 2,220 Climbing FlightAware ADS-B
10:13PM 34.6288 -84.6797 348° North 449 517 26,500 1,320 Climbing FlightAware ADS-B
10:13PM 34.6368 -84.6817 348° North 449 517 26,600 1,680 Climbing FlightAware ADS-B
10:13PM 34.6443 -84.6835 349° North 448 516 26,700 3,000 Climbing FlightAware ADS-B
10:13PM 34.6517 -84.6854 348° North 448 516 26,900 3,000 Climbing FlightAware ADS-B
10:13PM 34.6537 -84.6859 348° North 447 514 26,900 1,980 Level FlightAware ADS-B
10:13PM 34.6590 -84.6872 349° North 447 514 27,000 3,960 Climbing FlightAware ADS-B
10:13PM 34.6601 -84.6875 347° North 447 514 27,100 3,000 Climbing FlightAware ADS-B
10:13PM 34.6613 -84.6878 348° North 447 514 27,100  Level FlightAware ADS-B
10:13PM 34.6645 -84.6886 348° North 447 514 27,100 1,500 Level FlightAware ADS-B
10:13PM 34.6697 -84.6899 348° North 446 513 27,200 1,980 Climbing FlightAware ADS-B
10:14PM 34.6762 -84.6915 349° North 446 513 27,300 3,000 Climbing FlightAware ADS-B
10:14PM 34.6833 -84.6933 348° North 446 513 27,500 3,960 Climbing FlightAware ADS-B
10:14PM 34.6843 -84.6935 351° North 446 513 27,500 960 Level FlightAware ADS-B
10:14PM 34.6922 -84.6955 348° North 445 512 27,600 1,500 Climbing FlightAware ADS-B
10:14PM 34.6999 -84.6974 349° North 446 513 27,700 3,000 Climbing FlightAware ADS-B
10:14PM 34.7020 -84.6979 349° North 445 512 27,800 3,000 Climbing FlightAware ADS-B
10:14PM 34.7059 -84.6989 348° North 445 512 27,800 1,980 Level FlightAware ADS-B
10:14PM 34.7082 -84.6994 350° North 445 512 27,900 1,500 Climbing FlightAware ADS-B
10:14PM 34.7123 -84.7005 348° North 445 512 27,900 1,500 Level FlightAware ADS-B
10:14PM 34.7174 -84.7017 349° North 445 512 28,000 1,980 Climbing FlightAware ADS-B
10:14PM 34.7182 -84.7020 343° North 445 512 28,000 1,980 Level FlightAware ADS-B
10:14PM 34.7211 -84.7026 350° North 445 512 28,100 2,160 Climbing FlightAware ADS-B
10:14PM 34.7404 -84.7075 348° North 445 512 28,400 1,440 Climbing FlightAware ADS-B
10:15PM 34.8789 -84.7420 348° North 447 514 30,000 1,260 Climbing FlightAware ADS-B
10:15PM 34.8882 -84.7443 349° North 447 514 30,000  Level FlightAware ADS-B
10:15PM 34.8911 -84.7450 349° North 447 514 30,000  Level FlightAware ADS-B
10:15PM 34.8933 -84.7456 347° North 448 516 30,000  Level FlightAware ADS-B
10:15PM 34.8951 -84.7460 350° North 447 514 30,000  Level FlightAware ADS-B
10:15PM 34.8962 -84.7463 347° North 448 516 30,000  Level FlightAware ADS-B
10:15PM 34.8973 -84.7466 347° North 448 516 30,000  Level FlightAware ADS-B
10:15PM 34.8991 -84.7470 350° North 448 516 30,000  Level FlightAware ADS-B
10:15PM 34.9081 -84.7493 348° North 448 516 30,000  Level FlightAware ADS-B
10:15PM 34.9102 -84.7498 349° North 448 516 30,000  Level FlightAware ADS-B
10:15PM 34.9152 -84.7511 348° North 447 514 30,000  Level FlightAware ADS-B
10:15PM 34.9162 -84.7513 351° North 447 514 30,000  Level FlightAware ADS-B
10:16PM 34.9184 -84.7519 347° North 447 514 30,000  Level FlightAware ADS-B
10:16PM 34.9260 -84.7537 349° North 447 514 30,000  Level FlightAware ADS-B
10:16PM 34.9271 -84.7540 347° North 447 514 30,000  Level FlightAware ADS-B
10:16PM 34.9271 -84.7540 347° North 443 510 30,000  Level FlightAware ADS-B
10:16PM 34.9977 -84.7717 348° North 443 510 30,000  Level FlightAware ADS-B
10:16PM 35.0064 -84.7738 349° North 443 510 30,000  Level FlightAware ADS-B
10:17PM 35.1351 -84.8059 348° North 440 506 30,000  Level FlightAware ADS-B
10:17PM 35.1414 -84.8075 348° North 440 506 30,000  Level FlightAware ADS-B
10:17PM 35.1470 -84.8089 348° North 440 506 30,000  Level FlightAware ADS-B
10:17PM 35.1490 -84.8094 348° North 440 506 30,000  Level FlightAware ADS-B
10:17PM 35.1529 -84.8103 349° North 440 506 30,000  Level FlightAware ADS-B
10:17PM 35.1581 -84.8116 348° North 441 507 30,000  Level FlightAware ADS-B
10:18PM 35.1624 -84.8127 348° North 441 507 30,000  Level FlightAware ADS-B
10:18PM 35.1635 -84.8130 347° North 441 507 30,000  Level FlightAware ADS-B
10:18PM 35.1678 -84.8141 348° North 441 507 30,000  Level FlightAware ADS-B
10:18PM 35.1759 -84.8161 349° North 441 507 30,000  Level FlightAware ADS-B
10:18PM 35.1790 -84.8168 350° North 441 507 30,000  Level FlightAware ADS-B
10:18PM 35.1876 -84.8190 348° North 440 506 30,000  Level FlightAware ADS-B
10:18PM 35.1938 -84.8206 348° North 440 506 30,000  Level FlightAware ADS-B
10:18PM 35.1967 -84.8213 349° North 440 506 30,000  Level FlightAware ADS-B
10:18PM 35.2019 -84.8226 348° North 441 507 30,000  Level FlightAware ADS-B
10:18PM 35.2029 -84.8228 351° North 441 507 30,000  Level FlightAware ADS-B
10:18PM 35.2050 -84.8234 347° North 441 507 30,000  Level FlightAware ADS-B
10:18PM 35.2107 -84.8248 349° North 441 507 30,000  Level FlightAware ADS-B
10:18PM 35.2124 -84.8252 349° North 441 507 30,000  Level FlightAware ADS-B
10:18PM 35.2143 -84.8257 348° North 441 507 30,000  Level FlightAware ADS-B
10:18PM 35.2173 -84.8264 349° North 441 507 30,000  Level FlightAware ADS-B
10:18PM 35.2211 -84.8274 348° North 441 507 30,000  Level FlightAware ADS-B
10:18PM 35.2222 -84.8277 347° North 441 507 30,000  Level FlightAware ADS-B
10:18PM 35.2244 -84.8282 349° North 441 507 30,000  Level FlightAware ADS-B
10:18PM 35.2285 -84.8293 348° North 441 507 30,000  Level FlightAware ADS-B
10:18PM 35.2343 -84.8308 348° North 441 507 30,000  Level FlightAware ADS-B
10:18PM 35.2401 -84.8322 349° North 442 509 30,000  Level FlightAware ADS-B
10:18PM 35.2431 -84.8329 349° North 441 507 30,000  Level FlightAware ADS-B
10:18PM 35.2473 -84.8340 348° North 442 509 30,000  Level FlightAware ADS-B
10:18PM 35.2505 -84.8348 348° North 442 509 30,000  Level FlightAware ADS-B
10:18PM 35.2525 -84.8353 348° North 442 509 30,000  Level FlightAware ADS-B
10:18PM 35.2612 -84.8375 348° North 442 509 30,000  Level FlightAware ADS-B
10:18PM 35.2641 -84.8382 349° North 442 509 30,000  Level FlightAware ADS-B
10:18PM 35.2681 -84.8393 347° North 442 509 30,000  Level FlightAware ADS-B
10:19PM 35.3998 -84.8724 348° North 444 511 30,000  Level FlightAware ADS-B
10:20PM 35.4037 -84.8734 348° North 444 511 30,000  Level FlightAware ADS-B
10:20PM 35.4045 -84.8736 348° North 444 511 30,000  Level FlightAware ADS-B
10:20PM 35.4087 -84.8746 349° North 444 511 30,000  Level FlightAware ADS-B
10:20PM 35.4144 -84.8761 348° North 444 511 30,000  Level FlightAware ADS-B
10:20PM 35.4211 -84.8777 349° North 444 511 30,000  Level FlightAware ADS-B
10:20PM 35.4255 -84.8788 348° North 444 511 30,000  Level FlightAware ADS-B
10:20PM 35.4263 -84.8790 348° North 444 511 30,000  Level FlightAware ADS-B
10:20PM 35.4283 -84.8796 346° North 444 511 30,000  Level FlightAware ADS-B
10:20PM 35.4304 -84.8801 349° North 444 511 30,000  Level FlightAware ADS-B
10:20PM 35.4347 -84.8811 349° North 444 511 30,000  Level FlightAware ADS-B
10:20PM 35.4359 -84.8815 345° North 444 511 30,000  Level FlightAware ADS-B
10:20PM 35.4379 -84.8819 351° North 444 511 30,000  Level FlightAware ADS-B
10:20PM 35.4412 -84.8828 347° North 444 511 30,000  Level FlightAware ADS-B
10:20PM 35.4433 -84.8833 349° North 444 511 30,000  Level FlightAware ADS-B
10:20PM 35.4443 -84.8836 346° North 444 511 30,000  Level FlightAware ADS-B
10:20PM 35.4473 -84.8844 348° North 444 511 30,000  Level FlightAware ADS-B
10:20PM 35.4496 -84.8849 350° North 444 511 30,000  Level FlightAware ADS-B
10:20PM 35.4546 -84.8862 348° North 444 511 30,000  Level FlightAware ADS-B
10:20PM 35.4558 -84.8865 348° North 444 511 30,000  Level FlightAware ADS-B
10:20PM 35.4577 -84.8870 348° North 444 511 30,000  Level FlightAware ADS-B
10:20PM 35.4598 -84.8875 349° North 444 511 30,000  Level FlightAware ADS-B
10:20PM 35.4638 -84.8885 348° North 444 511 30,000  Level FlightAware ADS-B
10:20PM 35.4650 -84.8888 348° North 443 510 30,000  Level FlightAware ADS-B
10:20PM 35.4704 -84.8902 348° North 443 510 30,000  Level FlightAware ADS-B
10:20PM 35.4733 -84.8909 349° North 443 510 30,000  Level FlightAware ADS-B
10:20PM 35.4743 -84.8911 351° North 443 510 30,000  Level FlightAware ADS-B
10:20PM 35.4773 -84.8919 348° North 443 510 30,000  Level FlightAware ADS-B
10:20PM 35.4813 -84.8929 348° North 442 509 30,000  Level FlightAware ADS-B
10:20PM 35.4825 -84.8932 348° North 442 509 30,000  Level FlightAware ADS-B
10:20PM 35.4847 -84.8938 347° North 442 509 30,000  Level FlightAware ADS-B
10:20PM 35.4866 -84.8943 348° North 442 509 30,000  Level FlightAware ADS-B
10:20PM 35.4886 -84.8948 348° North 442 509 30,000  Level FlightAware ADS-B
10:20PM 35.4916 -84.8955 349° North 441 507 30,000  Level FlightAware ADS-B
10:20PM 35.4944 -84.8963 347° North 441 507 30,000  Level FlightAware ADS-B
10:20PM 35.5000 -84.8977 348° North 440 506 30,000  Level FlightAware ADS-B
10:20PM 35.5031 -84.8985 348° North 440 506 30,000  Level FlightAware ADS-B
10:20PM 35.5085 -84.8998 349° North 440 506 30,000  Level FlightAware ADS-B
10:20PM 35.5095 -84.9001 346° North 440 506 30,000  Level FlightAware ADS-B
10:20PM 35.5143 -84.9013 348° North 440 506 30,000  Level FlightAware ADS-B
10:20PM 35.5154 -84.9016 347° North 440 506 30,000  Level FlightAware ADS-B
10:20PM 35.5183 -84.9023 349° North 440 506 30,000  Level FlightAware ADS-B
10:21PM 35.5241 -84.9037 349° North 439 505 30,000  Level FlightAware ADS-B
10:21PM 35.5251 -84.9040 346° North 439 505 30,000  Level FlightAware ADS-B
10:21PM 35.5282 -84.9048 348° North 439 505 30,000  Level FlightAware ADS-B
10:22PM 35.6630 -84.9413 348° North 448 516 30,000  Level FlightAware ADS-B
10:22PM 35.6639 -84.9416 345° North 448 516 30,000  Level FlightAware ADS-B
10:22PM 35.6661 -84.9423 346° North 448 516 30,000  Level FlightAware ADS-B
10:22PM 35.6678 -84.9429 344° North 448 516 30,000  Level FlightAware ADS-B
10:22PM 35.6718 -84.9441 346° North 448 516 30,000  Level FlightAware ADS-B
10:22PM 35.6763 -84.9455 346° North 448 516 30,000  Level FlightAware ADS-B
10:22PM 35.6784 -84.9462 345° North 448 516 30,000  Level FlightAware ADS-B
10:22PM 35.6817 -84.9473 345° North 448 516 30,000  Level FlightAware ADS-B
10:22PM 35.6856 -84.9485 346° North 449 517 30,000  Level FlightAware ADS-B
10:22PM 35.6877 -84.9492 345° North 449 517 30,000  Level FlightAware ADS-B
10:22PM 35.6951 -84.9516 345° North 449 517 30,000  Level FlightAware ADS-B
10:22PM 35.6963 -84.9520 345° North 449 517 30,000  Level FlightAware ADS-B
10:22PM 35.6975 -84.9524 345° North 449 517 30,000  Level FlightAware ADS-B
10:22PM 35.7037 -84.9544 345° North 449 517 30,000  Level FlightAware ADS-B
10:22PM 35.7046 -84.9546 350° North 449 517 30,000  Level FlightAware ADS-B
10:22PM 35.7079 -84.9557 345° North 449 517 30,000  Level FlightAware ADS-B
10:22PM 35.7101 -84.9564 346° North 449 517 30,000  Level FlightAware ADS-B
10:22PM 35.7139 -84.9576 346° North 449 517 30,000  Level FlightAware ADS-B
10:22PM 35.7171 -84.9587 344° North 449 517 30,000  Level FlightAware ADS-B
10:22PM 35.7210 -84.9600 345° North 449 517 30,000  Level FlightAware ADS-B
10:22PM 35.7276 -84.9621 346° North 448 516 30,000  Level FlightAware ADS-B
10:22PM 35.7305 -84.9630 346° North 448 516 30,000  Level FlightAware ADS-B
10:22PM 35.7364 -84.9648 346° North 447 514 30,000  Level FlightAware ADS-B
10:22PM 35.7408 -84.9660 348° North 447 514 30,000  Level FlightAware ADS-B
10:22PM 35.7448 -84.9671 347° North 448 516 30,000  Level FlightAware ADS-B
10:22PM 35.7478 -84.9678 349° North 448 516 30,000  Level FlightAware ADS-B
10:22PM 35.7509 -84.9684 351° North 448 516 30,000  Level FlightAware ADS-B
10:22PM 35.7546 -84.9692 350° North 448 516 30,000  Level FlightAware ADS-B
10:22PM 35.7567 -84.9695 353° North 449 517 30,000  Level FlightAware ADS-B
10:22PM 35.7598 -84.9700 353° North 450 518 30,000  Level FlightAware ADS-B
10:22PM 35.7607 -84.9701 355° North 449 517 30,000  Level FlightAware ADS-B
10:23PM 35.7696 -84.9711 355° North 450 518 30,000  Level FlightAware ADS-B
10:23PM 35.7746 -84.9715 356° North 450 518 30,000  Level FlightAware ADS-B
10:23PM 35.7758 -84.9715 360° North 450 518 30,000  Level FlightAware ADS-B
10:23PM 35.7805 -84.9716 359° North 451 519 30,000  Level FlightAware ADS-B
10:23PM 35.7837 -84.9717 359° North 451 519 30,000  Level FlightAware ADS-B
10:23PM 35.7847 -84.9716 North 451 519 30,000  Level FlightAware ADS-B
10:23PM 35.7915 -84.9717 359° North 451 519 30,000  Level FlightAware ADS-B
10:23PM 35.7915 -84.9717 359° North 450 518 30,000  Level FlightAware ADS-B
10:24PM 35.9282 -84.9702 North 450 518 30,000  Level FlightAware ADS-B
10:24PM 35.9323 -84.9701 North 450 518 30,000  Level FlightAware ADS-B
10:24PM 35.9363 -84.9701 360° North 450 518 30,000  Level FlightAware ADS-B
10:24PM 35.9399 -84.9701 360° North 450 518 30,000  Level FlightAware ADS-B
10:24PM 35.9444 -84.9700 North 450 518 30,000  Level FlightAware ADS-B
10:24PM 35.9478 -84.9700 360° North 450 518 30,000  Level FlightAware ADS-B
10:24PM 35.9497 -84.9699 North 450 518 30,000  Level FlightAware ADS-B
10:24PM 35.9529 -84.9699 360° North 451 519 30,000  Level FlightAware ADS-B
10:25PM 36.0165 -84.9692 North 452 520 30,000  Level FlightAware ADS-B
10:25PM 36.0184 -84.9691 North 452 520 30,000  Level FlightAware ADS-B
10:25PM 36.0244 -84.9691 360° North 452 520 30,000  Level FlightAware ADS-B
10:25PM 36.0265 -84.9691 360° North 452 520 30,000  Level FlightAware ADS-B
10:25PM 36.0363 -84.9690 360° North 453 521 30,000  Level FlightAware ADS-B
10:25PM 36.0383 -84.9690 360° North 453 521 30,000  Level FlightAware ADS-B
10:25PM 36.0403 -84.9689 North 453 521 30,000  Level FlightAware ADS-B
10:25PM 36.0445 -84.9689 360° North 453 521 30,000  Level FlightAware ADS-B
10:25PM 36.0484 -84.9688 North 453 521 30,000  Level FlightAware ADS-B
10:25PM 36.0549 -84.9688 360° North 453 521 30,000  Level FlightAware ADS-B
10:25PM 36.0606 -84.9688 360° North 453 521 30,000  Level FlightAware ADS-B
10:26PM 36.1796 -84.9676 360° North 455 524 30,000  Level FlightAware ADS-B
10:26PM 36.2093 -84.9673 360° North 455 524 30,000  Level FlightAware ADS-B
10:26PM 36.2115 -84.9673 360° North 455 524 30,000  Level FlightAware ADS-B
10:26PM 36.2115 -84.9673 360° North 456 525 30,000  Level FlightAware ADS-B
10:26PM 36.2359 -84.9671 360° North 456 525 30,000  Level FlightAware ADS-B
10:26PM 36.2381 -84.9671 360° North 456 525 30,000  Level FlightAware ADS-B
10:26PM 36.2392 -84.9670 North 456 525 30,000  Level FlightAware ADS-B
10:26PM 36.2414 -84.9670 360° North 456 525 30,000  Level FlightAware ADS-B
10:26PM 36.2425 -84.9670 360° North 456 525 30,000  Level FlightAware ADS-B
10:26PM 36.2478 -84.9669 North 456 525 30,000  Level FlightAware ADS-B
10:26PM 36.2511 -84.9669 360° North 456 525 30,000  Level FlightAware ADS-B
10:26PM 36.2521 -84.9669 360° North 456 525 30,000  Level FlightAware ADS-B
10:26PM 36.2554 -84.9669 360° North 456 525 30,000  Level FlightAware ADS-B
10:26PM 36.2595 -84.9669 360° North 456 525 30,000  Level FlightAware ADS-B
10:26PM 36.2604 -84.9669 360° North 456 525 30,000  Level FlightAware ADS-B
10:26PM 36.2626 -84.9668 North 456 525 30,000  Level FlightAware ADS-B
10:27PM 36.2644 -84.9668 360° North 456 525 30,000  Level FlightAware ADS-B
10:27PM 36.2674 -84.9668 360° North 456 525 30,000  Level FlightAware ADS-B
10:27PM 36.2716 -84.9667 North 456 525 30,000  Level FlightAware ADS-B
10:27PM 36.2759 -84.9667 360° North 456 525 30,000  Level FlightAware ADS-B
10:27PM 36.2771 -84.9667 360° North 456 525 30,000  Level FlightAware ADS-B
10:27PM 36.2782 -84.9667 360° North 456 525 30,000  Level FlightAware ADS-B
10:27PM 36.2794 -84.9667 360° North 456 525 30,000  Level FlightAware ADS-B
10:27PM 36.2804 -84.9667 360° North 456 525 30,000  Level FlightAware ADS-B
10:27PM 36.2835 -84.9666 North 456 525 30,000  Level FlightAware ADS-B
10:27PM 36.2856 -84.9666 360° North 456 525 30,000  Level FlightAware ADS-B
10:27PM 36.2876 -84.9666 360° North 456 525 30,000  Level FlightAware ADS-B
10:27PM 36.2905 -84.9665 North 456 525 30,000  Level FlightAware ADS-B
10:27PM 36.2926 -84.9665 360° North 456 525 30,000  Level FlightAware ADS-B
10:27PM 36.2947 -84.9665 360° North 456 525 30,000  Level FlightAware ADS-B
10:27PM 36.2956 -84.9665 360° North 456 525 30,000  Level FlightAware ADS-B
10:27PM 36.2988 -84.9665 360° North 456 525 30,000  Level FlightAware ADS-B
10:27PM 36.3000 -84.9665 360° North 456 525 30,000  Level FlightAware ADS-B
10:27PM 36.3034 -84.9664 North 456 525 30,000  Level FlightAware ADS-B
10:27PM 36.3046 -84.9664 360° North 456 525 30,000  Level FlightAware ADS-B
10:27PM 36.3079 -84.9664 360° North 456 525 30,000  Level FlightAware ADS-B
10:27PM 36.3107 -84.9663 North 456 525 30,000  Level FlightAware ADS-B
10:28PM 36.4755 -84.9648 360° North 455 524 30,000  Level FlightAware ADS-B
10:28PM 36.4764 -84.9648 360° North 455 524 30,000  Level FlightAware ADS-B
10:28PM 36.4789 -84.9648 360° North 455 524 30,000  Level FlightAware ADS-B
10:28PM 36.4800 -84.9647 North 455 524 30,000  Level FlightAware ADS-B
10:28PM 36.4845 -84.9647 360° North 455 524 30,000  Level FlightAware ADS-B
10:28PM 36.4975 -84.9645 North 455 524 30,000  Level FlightAware ADS-B
10:28PM 36.4975 -84.9645 North 454 522 30,000  Level FlightAware ADS-B
10:28PM 36.5065 -84.9645 360° North 454 522 30,000  Level FlightAware ADS-B
10:28PM 36.5088 -84.9644 North 454 522 30,000  Level FlightAware ADS-B
10:29PM 36.5360 -84.9642 360° North 454 522 30,000  Level FlightAware ADS-B
10:29PM 36.5360 -84.9642 360° North 453 521 30,000  Level FlightAware ADS-B
10:29PM 36.6001 -84.9637 360° North 453 521 30,000  Level FlightAware ADS-B
10:29PM 36.6021 -84.9637 360° North 453 521 30,000  Level FlightAware ADS-B
10:29PM 36.6039 -84.9637 360° North 453 521 30,000  Level FlightAware ADS-B
10:30PM 36.7165 -84.9626 360° North 450 518 30,000 -240 Level FlightAware ADS-B
10:30PM 36.7627 -84.9621 360° North 450 518 29,700 -2,580 Descending FlightAware ADS-B
10:30PM 36.7650 -84.9621 360° North 450 518 29,700  Level FlightAware ADS-B
10:30PM 36.7673 -84.9621 360° North 450 518 29,700  Level FlightAware ADS-B
10:31PM 36.7673 -84.9621 360° North 445 512 29,700 -3,000 Level FlightAware ADS-B
10:31PM 36.7717 -84.9620 North 445 512 29,600 -3,000 Descending FlightAware ADS-B
10:31PM 36.7738 -84.9620 360° North 445 512 29,600  Level FlightAware ADS-B
10:31PM 36.7748 -84.9620 360° North 445 512 29,600 -3,000 Level FlightAware ADS-B
10:31PM 36.7781 -84.9620 360° North 445 512 29,500 -3,000 Descending FlightAware ADS-B
10:31PM 36.7781 -84.9620 360° North 444 511 29,500 -3,000 Level FlightAware ADS-B
10:31PM 36.7824 -84.9619 North 444 511 29,400 -2,040 Descending FlightAware ADS-B
10:31PM 36.7864 -84.9619 360° North 444 511 29,400 -2,040 Level FlightAware ADS-B
10:31PM 36.7885 -84.9618 North 444 511 29,300 -4,020 Descending FlightAware ADS-B
10:31PM 36.7928 -84.9618 360° North 444 511 29,200 -2,040 Descending FlightAware ADS-B
10:31PM 36.7950 -84.9617 North 444 511 29,200 -3,000 Level FlightAware ADS-B
10:31PM 36.7970 -84.9617 360° North 444 511 29,100 -4,020 Descending FlightAware ADS-B
10:31PM 36.8008 -84.9617 360° North 444 511 29,000 -2,040 Descending FlightAware ADS-B
10:31PM 36.8026 -84.9617 360° North 444 511 29,000 -3,000 Level FlightAware ADS-B
10:31PM 36.8046 -84.9616 North 444 511 28,900 -3,000 Descending FlightAware ADS-B
10:31PM 36.8046 -84.9616 North 445 512 28,900  Level FlightAware ADS-B
10:31PM 36.8065 -84.9616 360° North 445 512 28,900 -4,020 Level FlightAware ADS-B
10:31PM 36.8126 -84.9616 360° North 445 512 28,700 -4,020 Descending FlightAware ADS-B
10:31PM 36.8126 -84.9616 360° North 446 513 28,700  Level FlightAware ADS-B
10:31PM 36.8126 -84.9616 360° North 445 512 28,700 -2,040 Level FlightAware ADS-B
10:31PM 36.8252 -84.9614 North 445 512 28,500 -4,020 Descending FlightAware ADS-B
10:31PM 36.8252 -84.9614 North 444 511 28,500 -2,220 Level FlightAware ADS-B
10:31PM 36.8499 -84.9611 North 444 511 28,100 -2,520 Descending FlightAware ADS-B
10:31PM 36.8557 -84.9611 360° North 444 511 28,000 -3,000 Descending FlightAware ADS-B
10:31PM 36.8578 -84.9611 360° North 443 510 27,900 -3,000 Descending FlightAware ADS-B
10:31PM 36.8598 -84.9610 North 443 510 27,900  Level FlightAware ADS-B
10:31PM 36.8610 -84.9610 360° North 443 510 27,900  Level FlightAware ADS-B
10:31PM 36.8610 -84.9610 360° North 442 509 27,900 -3,000 Level FlightAware ADS-B
10:31PM 36.8684 -84.9610 360° North 442 509 27,700 -6,000 Descending FlightAware ADS-B
10:31PM 36.8703 -84.9610 360° North 442 509 27,700  Level FlightAware ADS-B
10:31PM 36.8703 -84.9610 360° North 441 507 27,700 -4,020 Level FlightAware ADS-B
10:31PM 36.8787 -84.9609 North 441 507 27,500 -2,460 Descending FlightAware ADS-B
10:33PM 37.0121 -84.9594 North 429 494 24,900 -2,340 Descending FlightAware ADS-B
10:33PM 37.0154 -84.9594 360° North 429 494 24,900 -3,000 Level FlightAware ADS-B
10:33PM 37.0165 -84.9594 360° North 429 494 24,800 -3,000 Descending FlightAware ADS-B
10:33PM 37.0193 -84.9594 360° North 429 494 24,800  Level FlightAware ADS-B
10:33PM 37.0203 -84.9594 360° North 429 494 24,800 -3,000 Level FlightAware ADS-B
10:33PM 37.0215 -84.9594 360° North 428 493 24,700 -3,000 Descending FlightAware ADS-B
10:33PM 37.0244 -84.9593 North 428 493 24,700 -3,000 Level FlightAware ADS-B
10:33PM 37.0265 -84.9593 360° North 428 493 24,600 -3,000 Descending FlightAware ADS-B
10:33PM 37.0286 -84.9592 North 428 493 24,600  Level FlightAware ADS-B
10:33PM 37.0309 -84.9592 360° North 428 493 24,600 -3,000 Level FlightAware ADS-B
10:33PM 37.0320 -84.9592 360° North 428 493 24,500 -3,000 Descending FlightAware ADS-B
10:33PM 37.0350 -84.9592 360° North 428 493 24,500  Level FlightAware ADS-B
10:33PM 37.0360 -84.9592 360° North 428 493 24,500 -3,000 Level FlightAware ADS-B
10:33PM 37.0382 -84.9591 North 427 491 24,400 -4,020 Descending FlightAware ADS-B
10:33PM 37.0423 -84.9591 360° North 427 491 24,300 -2,040 Descending FlightAware ADS-B
10:33PM 37.0433 -84.9591 360° North 426 490 24,300 -1,500 Level FlightAware ADS-B
10:33PM 37.0502 -84.9590 North 426 490 24,200 -3,000 Descending FlightAware ADS-B
10:33PM 37.0523 -84.9590 360° North 426 490 24,100 -3,000 Descending FlightAware ADS-B
10:33PM 37.0533 -84.9590 360° North 425 489 24,100  Level FlightAware ADS-B
10:33PM 37.0552 -84.9589 North 425 489 24,100 -3,000 Level FlightAware ADS-B
10:33PM 37.0589 -84.9589 360° North 425 489 24,000 -3,000 Descending FlightAware ADS-B
10:33PM 37.0599 -84.9589 360° North 425 489 24,000  Level FlightAware ADS-B
10:33PM 37.0608 -84.9589 360° North 424 488 24,000 -3,000 Level FlightAware ADS-B
10:33PM 37.0644 -84.9588 North 424 488 23,900 -3,000 Descending FlightAware ADS-B
10:33PM 37.0664 -84.9588 360° North 424 488 23,900 -3,000 Level FlightAware ADS-B
10:33PM 37.0683 -84.9588 360° North 424 488 23,800 -2,040 Descending FlightAware ADS-B
10:33PM 37.0683 -84.9588 360° North 423 487 23,800  Level FlightAware ADS-B
10:33PM 37.0723 -84.9587 North 423 487 23,800 -3,000 Level FlightAware ADS-B
10:33PM 37.0744 -84.9587 360° North 423 487 23,700 -3,000 Descending FlightAware ADS-B
10:33PM 37.0765 -84.9587 360° North 422 486 23,700 -3,000 Level FlightAware ADS-B
10:33PM 37.0784 -84.9587 360° North 422 486 23,600 -3,000 Descending FlightAware ADS-B
10:33PM 37.0812 -84.9586 North 422 486 23,600 -3,000 Level FlightAware ADS-B
10:33PM 37.0841 -84.9586 360° North 422 486 23,500 -3,000 Descending FlightAware ADS-B
10:33PM 37.0841 -84.9586 360° North 421 484 23,500  Level FlightAware ADS-B
10:33PM 37.0877 -84.9586 360° North 421 484 23,500 -3,000 Level FlightAware ADS-B
10:33PM 37.0887 -84.9586 360° North 421 484 23,400 -3,000 Descending FlightAware ADS-B
10:33PM 37.0905 -84.9586 360° North 421 484 23,400 -3,000 Level FlightAware ADS-B
10:33PM 37.0935 -84.9585 North 421 484 23,300 -2,400 Descending FlightAware ADS-B
10:33PM 37.1120 -84.9584 360° North 421 484 23,000 -2,220 Descending FlightAware ADS-B
10:33PM 37.1158 -84.9584 360° North 421 484 22,900 -2,040 Descending FlightAware ADS-B
10:33PM 37.1180 -84.9584 360° North 421 484 22,900 -3,000 Level FlightAware ADS-B
10:33PM 37.1200 -84.9583 North 421 484 22,800 -4,020 Descending FlightAware ADS-B
10:33PM 37.1240 -84.9583 360° North 421 484 22,700 -2,040 Descending FlightAware ADS-B
10:34PM 37.1358 -84.9582 360° North 421 484 22,500 -2,280 Descending FlightAware ADS-B
10:34PM 37.1388 -84.9582 360° North 421 484 22,400 -2,220 Descending FlightAware ADS-B
10:35PM 37.2733 -84.9558 360° North 414 476 19,600 -2,280 Descending Indianapolis Center
10:36PM 37.3853 -84.9550 360° North 405 466 17,100 -2,400 Descending Indianapolis Center
10:37PM 37.4928 -84.9542 360° North 390 449 14,700 -2,400 Descending Indianapolis Center
10:38PM 37.5942 -84.9533 360° North 367 422 12,300 -1,980 Descending Indianapolis Center
10:39PM 37.6933 -84.9986 340° North 341 392 10,700 -1,020 Descending Indianapolis Center
10:40PM 37.7406 -85.0892 303° West 312 359 10,300 -360 Descending Indianapolis Center
10:41PM 37.7817 -85.1719 302° West 278 320 10,000 -840 Descending Indianapolis Center
10:42PM 37.8200 -85.2494 302° West 263 303 8,600 -1,260 Descending Indianapolis Center
10:43PM 37.8567 -85.3219 303° West 262 302 7,500 -1,200 Descending Indianapolis Center
10:44PM 37.8950 -85.3997 302° West 259 298 6,200 -1,200 Descending Indianapolis Center
10:45PM 37.9328 -85.4769 302° West 259 298 5,100 -1,200 Descending Indianapolis Center
10:46PM 37.9789 -85.5667 303° West 254 292 3,800 -1,320 Descending Indianapolis Center
10:47PM 38.0203 -85.6336 308° West 244 281 2,500 -780 Descending Indianapolis Center
10:48PM 38.0608 -85.6858 315° West 203 234 2,300 -420 Descending Indianapolis Center
10:49PM 38.1056 -85.7031 343° North 173 199 1,700 -720 Descending Indianapolis Center
10:50PM 38.1444 -85.7161 345° North 157 181 900 -480 Descending Indianapolis Center
10:51PM 38.1789 -85.7281 345° North 153 176 800 -120 Descending Indianapolis Center
10:53PM 38.1667 -85.7333 208° Southwest  Level FlightAware Approximate